Terminal Aerodrome Forecast
Issued by NWS Los Angeles, CA

Home | Current Version | Previous Version | Text Only | Print | Product List | Glossary On
Versions: 1 2 3 4 5 6 7 8 9 10 11 12 13 14 15 16 17 18 19 20 21 22
000
FTUS46 KLOX 240300 CCA
TAFSMX
TAF COR
KSMX 240340Z 2404/2424 30010KT P6SM SCT200
     FM240600 30005KT 6SM BR SCT004 SCT200
     FM240900 VRB03KT P6SM SCT200
     FM241600 32012KT P6SM SCT200
     FM242000 31019G27KT P6SM BKN200=

USA.gov is the U.S. government's official web portal to all federal, state and local government web resources and services.